createdAt,value
2023-11-07T00:01:49.321Z,1.20
2023-11-07T00:04:17.127Z,1.50
2023-11-07T00:06:44.452Z,1.40
2023-11-07T00:09:11.384Z,2.60
2023-11-07T00:11:40.204Z,1.10
2023-11-07T00:14:07.228Z,2.50
2023-11-07T00:16:35.187Z,2.30
2023-11-07T00:19:03.345Z,1.20
2023-11-07T00:21:30.441Z,1.50
2023-11-07T00:23:57.219Z,2.30
2023-11-07T00:26:24.008Z,1.50
2023-11-07T00:28:51.552Z,1.30
2023-11-07T00:31:20.435Z,1.50
2023-11-07T00:33:47.392Z,1.80
2023-11-07T00:36:14.642Z,1.50
2023-11-07T00:38:41.640Z,2.10
2023-11-07T00:41:08.654Z,1.30
2023-11-07T00:43:35.889Z,1.30
2023-11-07T00:46:04.462Z,1.30
2023-11-07T00:48:31.924Z,1.50
2023-11-07T00:51:00.836Z,1.10
2023-11-07T00:53:28.099Z,1.60
2023-11-07T00:55:55.146Z,2.00
2023-11-07T00:58:22.076Z,3.30
2023-11-07T01:00:49.616Z,3.50
2023-11-07T01:03:16.534Z,2.00
2023-11-07T01:05:43.859Z,2.30
2023-11-07T01:08:12.210Z,1.60
2023-11-07T01:10:39.745Z,1.90
2023-11-07T01:13:06.911Z,2.20
2023-11-07T01:15:33.755Z,1.10
2023-11-07T01:18:01.603Z,2.70
2023-11-07T01:20:28.675Z,1.40
2023-11-07T01:22:55.803Z,2.10
2023-11-07T01:25:22.744Z,2.90
2023-11-07T01:27:49.807Z,1.70
2023-11-07T01:30:17.293Z,2.00
2023-11-07T01:32:44.248Z,3.20
2023-11-07T01:35:11.346Z,1.80
2023-11-07T01:37:38.296Z,1.50
2023-11-07T01:40:06.155Z,3.70
2023-11-07T01:42:42.405Z,2.20
2023-11-07T01:45:11.107Z,3.10
2023-11-07T01:47:39.848Z,2.20
2023-11-07T01:50:11.669Z,2.20
2023-11-07T01:52:42.016Z,2.70
2023-11-07T01:55:12.518Z,2.00
2023-11-07T01:57:42.541Z,2.90
2023-11-07T02:00:12.498Z,2.80
2023-11-07T02:02:42.969Z,1.70
2023-11-07T02:05:12.691Z,4.30
2023-11-07T02:07:40.027Z,1.50
2023-11-07T02:10:09.791Z,2.30
2023-11-07T02:12:36.677Z,2.00
2023-11-07T02:15:28.422Z,2.50
2023-11-07T02:17:55.948Z,4.90
2023-11-07T02:20:23.348Z,4.20
2023-11-07T02:22:54.252Z,5.30
2023-11-07T02:25:21.199Z,2.30
2023-11-07T02:27:48.767Z,3.90
2023-11-07T02:30:17.480Z,2.10
2023-11-07T02:32:44.981Z,2.60
2023-11-07T02:35:12.274Z,2.30
2023-11-07T02:37:40.009Z,2.20
2023-11-07T02:40:10.700Z,7.10
2023-11-07T02:42:37.604Z,2.10
2023-11-07T02:45:06.384Z,2.40
2023-11-07T02:47:34.166Z,2.30
2023-11-07T02:50:03.857Z,3.40
2023-11-07T02:52:31.924Z,1.90
2023-11-07T02:54:59.688Z,2.50
2023-11-07T02:57:26.483Z,1.90
2023-11-07T02:59:53.513Z,1.30
2023-11-07T03:02:21.645Z,1.60
2023-11-07T03:04:48.897Z,1.60
2023-11-07T03:07:15.843Z,2.00
2023-11-07T03:09:43.094Z,2.00
2023-11-07T03:12:13.416Z,2.70
2023-11-07T03:14:42.325Z,2.20
2023-11-07T03:17:09.568Z,1.30
2023-11-07T03:19:36.503Z,1.50
2023-11-07T03:22:03.536Z,2.10
2023-11-07T03:24:30.609Z,2.90
2023-11-07T03:26:57.492Z,1.50
2023-11-07T03:29:24.918Z,3.50
2023-11-07T03:31:54.402Z,2.80
2023-11-07T03:34:22.094Z,3.40
2023-11-07T03:36:49.013Z,1.60
2023-11-07T03:39:16.466Z,2.20
2023-11-07T03:41:45.699Z,1.50
2023-11-07T03:44:13.425Z,1.80
2023-11-07T03:46:41.713Z,2.00
2023-11-07T03:49:08.821Z,1.60
2023-11-07T03:51:35.826Z,2.80
2023-11-07T03:54:02.785Z,1.40
2023-11-07T03:56:29.818Z,2.50
2023-11-07T03:58:56.843Z,2.10
2023-11-07T04:01:23.789Z,1.50
2023-11-07T04:03:51.791Z,1.80
2023-11-07T04:06:18.970Z,1.90
2023-11-07T04:08:46.103Z,1.60
2023-11-07T04:11:14.428Z,1.70
2023-11-07T04:13:43.414Z,2.10
2023-11-07T04:16:10.389Z,1.50
2023-11-07T04:18:37.216Z,1.90
2023-11-07T04:21:05.004Z,2.50
2023-11-07T04:23:32.012Z,2.70
2023-11-07T04:25:59.161Z,2.10
2023-11-07T04:28:27.333Z,1.40
2023-11-07T04:30:54.351Z,3.30
2023-11-07T04:33:22.041Z,2.30
2023-11-07T04:35:49.688Z,4.00
2023-11-07T04:38:17.474Z,7.40
2023-11-07T04:40:44.309Z,2.20
2023-11-07T04:43:11.597Z,1.40
2023-11-07T04:45:38.807Z,2.60
2023-11-07T04:48:06.882Z,2.00
2023-11-07T04:50:35.509Z,1.20
2023-11-07T04:53:05.179Z,3.10
2023-11-07T04:55:35.066Z,2.00
2023-11-07T04:58:02.034Z,3.50
2023-11-07T05:00:29.287Z,3.40
2023-11-07T05:02:56.198Z,3.40
2023-11-07T05:05:23.283Z,2.70
2023-11-07T05:07:51.764Z,2.10
2023-11-07T05:10:20.658Z,2.70
2023-11-07T05:12:48.319Z,2.60
2023-11-07T05:15:15.315Z,4.00
2023-11-07T05:17:42.395Z,3.40
2023-11-07T05:20:11.161Z,3.80
2023-11-07T05:22:38.187Z,2.90
2023-11-07T05:25:09.674Z,2.70
2023-11-07T05:27:36.760Z,3.10
2023-11-07T05:30:04.833Z,4.20
2023-11-07T05:32:31.997Z,3.20
2023-11-07T05:34:58.927Z,4.10
2023-11-07T05:37:25.862Z,3.40
2023-11-07T05:39:52.699Z,4.10
2023-11-07T05:42:20.269Z,3.60
2023-11-07T05:44:47.199Z,4.70
2023-11-07T05:47:14.449Z,4.50
2023-11-07T05:49:41.303Z,4.60
2023-11-07T05:52:08.463Z,6.10
2023-11-07T05:54:35.396Z,4.70
2023-11-07T05:57:02.661Z,4.20
2023-11-07T05:59:29.713Z,6.80
2023-11-07T06:01:56.828Z,4.40
2023-11-07T06:04:31.577Z,4.30
2023-11-07T06:06:59.548Z,5.50
2023-11-07T06:09:30.873Z,3.70
2023-11-07T06:11:57.759Z,5.30
2023-11-07T06:14:25.199Z,4.30
2023-11-07T06:16:55.186Z,4.50
2023-11-07T06:19:22.358Z,5.60
2023-11-07T06:21:50.222Z,3.30
2023-11-07T06:24:17.433Z,3.40
2023-11-07T06:26:44.451Z,3.60
2023-11-07T06:29:13.233Z,5.10
2023-11-07T06:31:44.758Z,4.40
2023-11-07T06:34:12.671Z,6.80
2023-11-07T06:36:39.644Z,5.80
2023-11-07T06:39:07.134Z,3.40
2023-11-07T06:41:35.086Z,3.50
2023-11-07T06:44:02.018Z,5.30
2023-11-07T06:46:28.987Z,3.90
2023-11-07T06:48:59.320Z,4.00
2023-11-07T06:51:28.488Z,4.00
2023-11-07T06:53:55.433Z,4.50
2023-11-07T06:56:22.372Z,2.90
2023-11-07T06:58:49.314Z,4.60
2023-11-07T07:01:16.467Z,2.30
2023-11-07T07:03:43.309Z,2.90
2023-11-07T07:06:11.734Z,2.50
2023-11-07T07:08:38.878Z,4.50
2023-11-07T07:11:06.604Z,3.50
2023-11-07T07:13:34.278Z,3.50
2023-11-07T07:16:01.311Z,3.10
2023-11-07T07:18:28.571Z,3.30
2023-11-07T07:20:56.119Z,3.10
2023-11-07T07:23:26.247Z,3.30
2023-11-07T07:25:56.773Z,2.50
2023-11-07T07:28:26.381Z,5.00
2023-11-07T07:30:55.058Z,1.80
2023-11-07T07:33:25.066Z,4.40
2023-11-07T07:35:52.398Z,6.00
2023-11-07T07:38:19.642Z,4.20
2023-11-07T07:40:46.435Z,3.10
2023-11-07T07:43:13.367Z,2.70
2023-11-07T07:45:43.174Z,2.00
2023-11-07T07:48:11.455Z,3.40
2023-11-07T07:50:42.562Z,3.80
2023-11-07T07:53:09.849Z,3.60
2023-11-07T07:55:38.994Z,3.30
2023-11-07T07:58:07.116Z,2.90
2023-11-07T08:00:34.067Z,5.30
2023-11-07T08:03:07.927Z,3.10
2023-11-07T08:05:39.631Z,3.10
2023-11-07T08:08:07.487Z,3.00
2023-11-07T08:10:34.645Z,2.50
2023-11-07T08:13:06.302Z,2.60
2023-11-07T08:18:06.775Z,3.20
2023-11-07T08:20:34.292Z,2.00
2023-11-07T08:23:02.363Z,3.40
2023-11-07T08:25:29.356Z,3.20
2023-11-07T08:27:56.667Z,1.90
2023-11-07T08:30:24.217Z,2.30
2023-11-07T08:32:52.133Z,2.20
2023-11-07T08:35:19.748Z,2.60
2023-11-07T08:37:50.893Z,2.60
2023-11-07T08:40:20.468Z,4.60
2023-11-07T08:42:49.081Z,3.90
2023-11-07T08:45:16.826Z,3.60
2023-11-07T08:47:44.871Z,3.10
2023-11-07T08:50:14.933Z,3.00
2023-11-07T08:52:41.854Z,5.10
2023-11-07T08:55:09.761Z,3.40
2023-11-07T08:57:42.262Z,3.10
2023-11-07T09:00:10.568Z,2.60
2023-11-07T09:02:39.015Z,3.50
2023-11-07T09:05:07.494Z,2.80
2023-11-07T09:07:35.690Z,2.40
2023-11-07T09:10:03.187Z,2.80
2023-11-07T09:12:30.488Z,2.70
2023-11-07T09:15:00.080Z,3.60
2023-11-07T09:17:28.041Z,3.90
2023-11-07T09:19:55.476Z,2.80
2023-11-07T09:22:23.954Z,2.40
2023-11-07T09:24:51.920Z,3.30
2023-11-07T09:27:19.110Z,3.10
2023-11-07T09:29:46.991Z,2.70
2023-11-07T09:32:14.502Z,2.90
2023-11-07T09:34:42.221Z,2.90
2023-11-07T09:37:09.405Z,2.90
2023-11-07T09:39:36.667Z,3.80
2023-11-07T09:42:08.611Z,2.40
2023-11-07T09:44:38.993Z,2.00
2023-11-07T09:47:06.924Z,2.70
2023-11-07T09:49:34.241Z,3.00
2023-11-07T09:52:05.424Z,3.10
2023-11-07T09:54:33.648Z,3.00
2023-11-07T09:57:07.260Z,3.10
2023-11-07T09:59:50.207Z,1.60
2023-11-07T10:02:17.561Z,2.40
2023-11-07T10:04:45.385Z,2.70
2023-11-07T10:07:13.602Z,3.00
2023-11-07T10:09:41.227Z,4.90
2023-11-07T10:12:16.299Z,2.30
2023-11-07T10:14:43.451Z,3.30
2023-11-07T10:17:23.502Z,2.60
2023-11-07T10:20:05.706Z,2.60
2023-11-07T10:22:51.186Z,6.50
2023-11-07T10:25:35.597Z,1.80
2023-11-07T10:28:03.602Z,2.10
2023-11-07T10:30:37.604Z,4.10
2023-11-07T10:33:04.639Z,2.60
2023-11-07T10:35:52.101Z,2.90
2023-11-07T10:38:19.402Z,2.20
2023-11-07T10:40:48.697Z,3.30
2023-11-07T10:43:34.420Z,2.60
2023-11-07T10:46:05.582Z,2.30
2023-11-07T10:48:42.991Z,3.30
2023-11-07T10:51:14.033Z,4.40
2023-11-07T10:53:45.281Z,2.20
2023-11-07T10:56:18.945Z,2.80
2023-11-07T10:58:55.482Z,2.50
2023-11-07T11:01:22.393Z,3.40
2023-11-07T11:03:52.924Z,5.10
2023-11-07T11:06:24.779Z,2.30
2023-11-07T11:08:55.077Z,2.50
2023-11-07T11:11:22.120Z,5.00
2023-11-07T11:13:49.176Z,3.30
2023-11-07T11:16:16.211Z,5.40
2023-11-07T11:18:57.037Z,3.90
2023-11-07T11:21:58.031Z,1.90
2023-11-07T11:24:41.071Z,5.00
2023-11-07T11:27:15.344Z,1.60
2023-11-07T11:29:49.833Z,2.20
2023-11-07T11:32:32.540Z,9.80
2023-11-07T11:35:28.416Z,13.00
2023-11-07T11:38:14.717Z,9.70
2023-11-07T11:41:00.188Z,7.70
2023-11-07T11:43:33.523Z,3.20
2023-11-07T11:46:29.936Z,2.50
2023-11-07T11:49:09.620Z,4.70
2023-11-07T11:51:41.345Z,2.30
2023-11-07T11:54:12.166Z,1.80
2023-11-07T11:56:51.256Z,3.40
2023-11-07T11:59:20.013Z,2.90
2023-11-07T12:01:50.805Z,2.10
2023-11-07T12:04:40.841Z,1.50
2023-11-07T12:07:11.068Z,2.40
2023-11-07T12:09:38.902Z,2.80
2023-11-07T12:12:06.825Z,3.60
2023-11-07T12:14:34.205Z,3.50
2023-11-07T12:17:01.481Z,1.70
2023-11-07T12:19:30.235Z,3.30
2023-11-07T12:22:00.193Z,1.60
2023-11-07T12:24:27.242Z,4.50
2023-11-07T12:26:54.282Z,1.40
2023-11-07T12:29:34.739Z,2.30
2023-11-07T12:32:03.975Z,2.50
2023-11-07T12:34:32.306Z,3.40
2023-11-07T12:37:10.359Z,2.40
2023-11-07T12:39:37.398Z,2.60
2023-11-07T12:42:05.521Z,1.70
2023-11-07T12:44:32.554Z,3.60
2023-11-07T12:46:59.603Z,2.70
2023-11-07T12:49:28.703Z,2.80
2023-11-07T12:51:56.601Z,1.40
2023-11-07T12:54:28.414Z,3.10
2023-11-07T12:56:55.855Z,2.40
2023-11-07T12:59:23.252Z,2.00
2023-11-07T13:01:50.296Z,2.20
2023-11-07T13:04:18.897Z,1.60
2023-11-07T13:06:59.305Z,1.10
2023-11-07T13:09:33.094Z,1.50
2023-11-07T13:12:10.129Z,2.10
2023-11-07T13:14:40.442Z,1.10
2023-11-07T13:17:08.952Z,1.00
2023-11-07T13:19:37.012Z,1.50
2023-11-07T13:22:04.561Z,1.70
2023-11-07T13:24:31.807Z,2.80
2023-11-07T13:26:59.877Z,1.30
2023-11-07T13:29:28.048Z,2.90
2023-11-07T13:31:55.600Z,1.10
2023-11-07T13:34:22.761Z,1.30
2023-11-07T13:36:49.726Z,1.10
2023-11-07T13:39:24.443Z,4.20
2023-11-07T13:41:52.043Z,1.40
2023-11-07T13:44:19.134Z,1.60
2023-11-07T13:46:47.417Z,1.50
2023-11-07T13:49:14.624Z,1.20
2023-11-07T13:51:42.141Z,2.70
2023-11-07T13:54:09.521Z,1.80
2023-11-07T13:56:37.046Z,2.50
2023-11-07T13:59:05.586Z,1.10
2023-11-07T14:01:32.680Z,2.50
2023-11-07T14:03:59.861Z,2.10
2023-11-07T14:06:28.009Z,2.20
2023-11-07T14:08:55.286Z,1.60
2023-11-07T14:11:22.403Z,2.20
2023-11-07T14:13:51.182Z,0.90
2023-11-07T14:16:18.931Z,1.30
2023-11-07T14:18:49.566Z,2.20
2023-11-07T14:21:17.842Z,1.60
2023-11-07T14:23:47.683Z,2.90
2023-11-07T14:26:15.833Z,1.10
2023-11-07T14:28:50.937Z,2.30
2023-11-07T14:31:26.436Z,1.50
2023-11-07T14:33:53.754Z,1.00
2023-11-07T14:36:20.992Z,1.20
2023-11-07T14:38:48.054Z,1.60
2023-11-07T14:41:15.208Z,1.90
2023-11-07T14:43:42.379Z,1.00
2023-11-07T14:46:10.836Z,4.10
2023-11-07T14:48:38.003Z,1.20
2023-11-07T14:51:05.660Z,1.10
2023-11-07T14:53:33.225Z,1.30
2023-11-07T14:56:00.360Z,2.70
2023-11-07T14:58:27.327Z,2.80
2023-11-07T15:00:54.754Z,3.30
2023-11-07T15:03:23.209Z,1.60
2023-11-07T15:05:52.327Z,1.30
2023-11-07T15:08:20.001Z,1.80
2023-11-07T15:10:47.043Z,1.10
2023-11-07T15:13:14.166Z,2.40
2023-11-07T15:15:41.809Z,1.00
2023-11-07T15:18:12.531Z,1.90
2023-11-07T15:20:40.762Z,1.50
2023-11-07T15:23:08.099Z,1.40
2023-11-07T15:25:35.816Z,2.70
2023-11-07T15:28:03.585Z,1.30
2023-11-07T15:30:35.511Z,1.10
2023-11-07T15:33:03.662Z,2.20
2023-11-07T15:35:35.169Z,1.90
2023-11-07T15:38:02.387Z,3.20
2023-11-07T15:40:29.527Z,1.80
2023-11-07T15:42:56.795Z,1.50
2023-11-07T15:45:23.839Z,2.40
2023-11-07T15:47:51.048Z,1.80
2023-11-07T15:50:18.264Z,3.00
2023-11-07T15:52:55.873Z,2.50
2023-11-07T15:55:32.593Z,3.30
2023-11-07T15:58:00.057Z,0.80
2023-11-07T16:00:28.673Z,2.20
2023-11-07T16:02:55.871Z,2.60
2023-11-07T16:05:29.744Z,2.50
2023-11-07T16:07:56.860Z,1.30
2023-11-07T16:10:26.707Z,3.00
2023-11-07T16:12:54.324Z,2.30
2023-11-07T16:15:21.862Z,3.00
2023-11-07T16:17:49.798Z,1.30
2023-11-07T16:20:20.718Z,1.20
2023-11-07T16:22:48.208Z,4.60
2023-11-07T16:25:16.544Z,1.30
2023-11-07T16:27:43.876Z,1.20
2023-11-07T16:30:12.307Z,2.30
2023-11-07T16:32:40.062Z,1.30
2023-11-07T16:35:07.686Z,2.30
2023-11-07T16:37:35.028Z,1.40
2023-11-07T16:40:08.891Z,2.00
2023-11-07T16:42:36.807Z,1.20
2023-11-07T16:45:05.880Z,5.40
2023-11-07T16:47:34.861Z,1.90
2023-11-07T16:50:02.451Z,1.90
2023-11-07T16:52:29.550Z,1.80
2023-11-07T16:54:56.741Z,1.60
2023-11-07T16:57:23.943Z,1.40
2023-11-07T16:59:51.798Z,3.10
2023-11-07T17:02:19.314Z,4.10
2023-11-07T17:04:46.486Z,1.60
2023-11-07T17:07:13.831Z,2.00
2023-11-07T17:09:41.459Z,2.50
2023-11-07T17:12:08.726Z,1.70
2023-11-07T17:14:37.689Z,1.30
2023-11-07T17:17:05.901Z,1.70
2023-11-07T17:19:32.943Z,1.60
2023-11-07T17:21:59.903Z,3.50
2023-11-07T17:24:28.209Z,3.70
2023-11-07T17:26:55.661Z,2.50
2023-11-07T17:29:22.974Z,2.10
2023-11-07T17:31:50.152Z,1.50
2023-11-07T17:34:17.694Z,1.40
2023-11-07T17:36:46.688Z,1.90
2023-11-07T17:39:16.123Z,1.80
2023-11-07T17:41:46.917Z,2.10
2023-11-07T17:44:18.581Z,1.90
2023-11-07T17:49:15.012Z,4.10
2023-11-07T17:51:45.585Z,1.50
2023-11-07T17:54:13.670Z,2.40
2023-11-07T17:56:41.266Z,1.70
2023-11-07T17:59:11.914Z,2.70
2023-11-07T18:01:39.654Z,2.00
2023-11-07T18:04:07.306Z,4.30
2023-11-07T18:06:34.667Z,2.40
2023-11-07T18:09:02.346Z,2.10
2023-11-07T18:11:34.274Z,5.00
2023-11-07T18:14:03.099Z,4.10
2023-11-07T18:16:30.457Z,1.40
2023-11-07T18:18:59.455Z,3.40
2023-11-07T18:21:28.109Z,6.60
2023-11-07T18:23:55.869Z,4.40
2023-11-07T18:26:23.515Z,2.20
2023-11-07T18:28:50.778Z,1.90
2023-11-07T18:31:18.248Z,1.90
2023-11-07T18:33:49.421Z,5.80
2023-11-07T18:36:18.580Z,2.10
2023-11-07T18:38:46.292Z,2.90
2023-11-07T18:41:13.320Z,2.80
2023-11-07T18:43:40.369Z,4.70
2023-11-07T18:46:11.417Z,4.20
2023-11-07T18:48:40.157Z,4.10
2023-11-07T18:51:07.695Z,3.10
2023-11-07T18:53:43.499Z,4.00
2023-11-07T18:56:13.920Z,4.30
2023-11-07T18:58:42.320Z,2.00
2023-11-07T19:01:09.992Z,3.00
2023-11-07T19:03:37.332Z,1.60
2023-11-07T19:06:07.324Z,3.90
2023-11-07T19:08:34.912Z,1.40
2023-11-07T19:11:02.246Z,2.50
2023-11-07T19:13:29.295Z,2.90
2023-11-07T19:15:56.345Z,3.10
2023-11-07T19:18:25.214Z,2.40
2023-11-07T19:20:54.641Z,3.10
2023-11-07T19:23:23.237Z,2.00
2023-11-07T19:25:53.029Z,2.10
2023-11-07T19:28:24.184Z,5.40
2023-11-07T19:30:51.221Z,3.30
2023-11-07T19:33:19.881Z,3.00
2023-11-07T19:35:48.734Z,2.60
2023-11-07T19:38:15.690Z,3.90
2023-11-07T19:40:44.527Z,2.90
2023-11-07T19:43:11.586Z,2.20
2023-11-07T19:45:43.561Z,1.90
2023-11-07T19:48:14.522Z,5.10
2023-11-07T19:50:41.755Z,2.80
2023-11-07T19:53:12.011Z,5.20
2023-11-07T19:55:39.270Z,4.60
2023-11-07T19:58:06.064Z,4.40
2023-11-07T20:00:33.258Z,5.00
2023-11-07T20:03:00.975Z,3.50
2023-11-07T20:05:28.125Z,3.70
2023-11-07T20:07:56.757Z,5.30
2023-11-07T20:10:25.278Z,3.70
2023-11-07T20:12:52.741Z,5.60
2023-11-07T20:15:20.028Z,5.40
2023-11-07T20:17:47.187Z,5.60
2023-11-07T20:20:15.517Z,3.30
2023-11-07T20:22:44.515Z,3.40
2023-11-07T20:25:11.553Z,6.80
2023-11-07T20:27:40.405Z,5.20
2023-11-07T20:30:11.481Z,3.90
2023-11-07T20:32:38.699Z,2.70
2023-11-07T20:35:06.639Z,3.30
2023-11-07T20:37:33.668Z,3.10
2023-11-07T20:40:00.915Z,2.00
2023-11-07T20:42:28.484Z,4.90
2023-11-07T20:45:01.309Z,3.60
2023-11-07T20:47:36.131Z,4.00
2023-11-07T20:50:06.648Z,4.10
2023-11-07T20:52:33.928Z,5.60
2023-11-07T20:55:01.200Z,4.50
2023-11-07T20:57:28.259Z,3.50
2023-11-07T20:59:55.198Z,5.20
2023-11-07T21:02:22.354Z,3.50
2023-11-07T21:04:49.548Z,3.20
2023-11-07T21:07:16.761Z,3.60
2023-11-07T21:09:43.786Z,7.60
2023-11-07T21:12:10.837Z,4.60
2023-11-07T21:14:39.429Z,5.20
2023-11-07T21:17:06.487Z,5.00
2023-11-07T21:19:36.787Z,5.80
2023-11-07T21:22:06.634Z,8.20
2023-11-07T21:24:33.891Z,3.50
2023-11-07T21:27:01.207Z,6.30
2023-11-07T21:29:30.418Z,2.80
2023-11-07T21:31:59.291Z,4.70
2023-11-07T21:34:26.418Z,4.70
2023-11-07T21:36:53.662Z,3.20
2023-11-07T21:39:21.988Z,3.50
2023-11-07T21:41:49.482Z,5.40
2023-11-07T21:44:16.591Z,4.40
2023-11-07T21:46:43.420Z,3.40
2023-11-07T21:49:10.499Z,7.10
2023-11-07T21:51:37.860Z,4.80
2023-11-07T21:54:05.726Z,5.60
2023-11-07T21:56:32.839Z,3.50
2023-11-07T21:58:59.678Z,5.40
2023-11-07T22:01:27.030Z,6.30
2023-11-07T22:03:54.478Z,4.70
2023-11-07T22:06:22.116Z,5.00
2023-11-07T22:08:49.919Z,3.50
2023-11-07T22:11:16.871Z,5.10
2023-11-07T22:13:43.909Z,4.70
2023-11-07T22:16:11.484Z,5.90
2023-11-07T22:18:39.773Z,7.90
2023-11-07T22:21:07.588Z,7.20
2023-11-07T22:23:35.283Z,5.80
2023-11-07T22:26:02.212Z,5.80
2023-11-07T22:28:31.543Z,5.30
2023-11-07T22:30:59.904Z,4.50
2023-11-07T22:33:27.211Z,5.00
2023-11-07T22:35:54.499Z,4.60
2023-11-07T22:38:21.658Z,4.30
2023-11-07T22:40:51.644Z,9.10
2023-11-07T22:43:19.530Z,4.70
2023-11-07T22:45:47.736Z,7.20
2023-11-07T22:48:14.971Z,6.60
2023-11-07T22:50:42.105Z,5.50
2023-11-07T22:53:10.327Z,5.50
2023-11-07T22:55:37.654Z,4.60
2023-11-07T22:58:05.594Z,10.90
2023-11-07T23:00:41.618Z,8.30
2023-11-07T23:03:11.619Z,5.80
2023-11-07T23:05:40.297Z,8.90
2023-11-07T23:08:10.781Z,7.90
2023-11-07T23:10:39.493Z,6.40
2023-11-07T23:13:07.557Z,7.70
2023-11-07T23:15:35.340Z,8.20
2023-11-07T23:18:02.349Z,6.50
2023-11-07T23:20:31.092Z,10.00
2023-11-07T23:22:59.207Z,7.70
2023-11-07T23:25:27.089Z,5.70
2023-11-07T23:27:54.222Z,5.10
2023-11-07T23:30:21.911Z,7.60
2023-11-07T23:32:49.859Z,7.30
2023-11-07T23:35:18.698Z,5.30
2023-11-07T23:37:45.620Z,7.30
2023-11-07T23:40:13.146Z,5.30
2023-11-07T23:42:41.673Z,5.10
2023-11-07T23:45:09.217Z,4.60
2023-11-07T23:47:36.642Z,6.50
2023-11-07T23:50:05.808Z,11.20
2023-11-07T23:52:33.599Z,7.40
2023-11-07T23:55:01.465Z,9.60
2023-11-07T23:57:29.223Z,8.30
2023-11-07T23:59:56.891Z,8.00
